Terminal Aerodrome Forecast
Issued by NWS

Home | Current Version | Previous Version | Text Only | Print | Product List | Glossary Off
Versions: 1 2 3 4 5 6 7 8 9 10 11 12 13 14 15

000
FTUS43 KGRB 011107 AAA
TAFAUW
TAF AMD
KAUW 011107Z 0111/0206 28006KT P6SM SCT015 OVC090
      TEMPO 0111/0114 6SM -SHSN BKN015
     FM011400 29007KT P6SM -SN OVC010
     FM011600 30008KT P6SM OVC018=

USA.gov is the U.S. government's official web portal to all federal, state and local government web resources and services.